createdAt,value
2018-02-06T00:00:19.996Z,60.96
2018-02-06T00:00:43.795Z,60.99
2018-02-06T00:01:07.536Z,60.99
2018-02-06T00:01:31.309Z,60.99
2018-02-06T00:01:55.399Z,60.99
2018-02-06T00:02:19.159Z,61.00
2018-02-06T00:02:42.622Z,61.01
2018-02-06T00:03:06.397Z,61.03
2018-02-06T00:03:30.180Z,61.05
2018-02-06T00:03:53.925Z,61.09
2018-02-06T00:04:17.948Z,61.11
2018-02-06T00:04:41.992Z,61.13
2018-02-06T00:05:05.436Z,61.11
2018-02-06T00:05:29.203Z,61.10
2018-02-06T00:05:53.079Z,61.11
2018-02-06T00:06:16.904Z,61.11
2018-02-06T00:06:40.674Z,61.12
2018-02-06T00:07:04.705Z,61.11
2018-02-06T00:07:28.517Z,61.11
2018-02-06T00:07:52.611Z,61.12
2018-02-06T00:08:16.385Z,61.13
2018-02-06T00:08:39.846Z,61.15
2018-02-06T00:09:03.410Z,61.16
2018-02-06T00:09:26.871Z,61.16
2018-02-06T00:09:50.640Z,61.18
2018-02-06T00:10:14.437Z,61.18
2018-02-06T00:10:38.461Z,61.19
2018-02-06T00:11:02.973Z,61.18
2018-02-06T00:11:26.477Z,61.20
2018-02-06T00:11:50.226Z,61.20
2018-02-06T00:12:14.024Z,61.20
2018-02-06T00:12:37.846Z,61.20
2018-02-06T00:13:01.890Z,61.17
2018-02-06T00:13:25.387Z,61.18
2018-02-06T00:13:49.199Z,61.19
2018-02-06T00:14:12.949Z,61.18
2018-02-06T00:14:36.704Z,61.18
2018-02-06T00:15:00.164Z,61.19
2018-02-06T00:15:23.906Z,61.21
2018-02-06T00:15:47.739Z,61.23
2018-02-06T00:16:11.674Z,61.24
2018-02-06T00:16:35.521Z,61.26
2018-02-06T00:16:59.291Z,61.28
2018-02-06T00:17:23.355Z,61.28
2018-02-06T00:17:46.823Z,61.29
2018-02-06T00:18:10.632Z,61.29
2018-02-06T00:18:34.382Z,61.30
2018-02-06T00:18:58.133Z,61.29
2018-02-06T00:19:22.185Z,61.30
2018-02-06T00:19:45.933Z,61.33
2018-02-06T00:20:10.075Z,61.35
2018-02-06T00:20:33.912Z,61.36
2018-02-06T00:20:57.940Z,61.38
2018-02-06T00:21:21.824Z,61.41
2018-02-06T00:21:45.299Z,61.42
2018-02-06T00:22:08.414Z,61.42
2018-02-06T00:22:43.260Z,61.38
2018-02-06T00:23:07.009Z,61.40
2018-02-06T00:23:30.758Z,61.40
2018-02-06T00:23:54.505Z,61.43
2018-02-06T00:24:18.475Z,61.45
2018-02-06T00:24:42.250Z,61.49
2018-02-06T00:25:06.295Z,61.49
2018-02-06T00:25:29.986Z,61.50
2018-02-06T00:25:53.814Z,61.48
2018-02-06T00:26:18.088Z,61.46
2018-02-06T00:26:42.360Z,61.45
2018-02-06T00:27:06.152Z,61.43
2018-02-06T00:27:29.969Z,61.41
2018-02-06T00:27:54.006Z,61.39
2018-02-06T00:28:17.887Z,61.40
2018-02-06T00:28:41.369Z,61.41
2018-02-06T00:29:05.393Z,61.41
2018-02-06T00:29:29.275Z,61.42
2018-02-06T00:29:53.017Z,61.43
2018-02-06T00:30:16.802Z,61.43
2018-02-06T00:30:40.551Z,61.42
2018-02-06T00:31:04.488Z,61.40
2018-02-06T00:31:28.241Z,61.40
2018-02-06T00:31:51.783Z,61.41
2018-02-06T00:32:15.548Z,61.41
2018-02-06T00:32:39.430Z,61.42
2018-02-06T00:33:03.177Z,61.41
2018-02-06T00:33:26.955Z,61.41
2018-02-06T00:33:50.410Z,61.41
2018-02-06T00:34:14.169Z,61.42
2018-02-06T00:34:37.918Z,61.42
2018-02-06T00:35:01.998Z,61.42
2018-02-06T00:35:25.825Z,61.43
2018-02-06T00:35:49.785Z,61.42
2018-02-06T00:36:13.540Z,61.41
2018-02-06T00:36:37.062Z,61.40
2018-02-06T00:37:00.868Z,61.38
2018-02-06T00:37:24.630Z,61.38
2018-02-06T00:37:48.425Z,61.38
2018-02-06T00:38:12.505Z,61.35
2018-02-06T00:38:36.321Z,61.33
2018-02-06T00:39:00.368Z,61.33
2018-02-06T00:39:24.169Z,61.33
2018-02-06T00:39:48.161Z,61.34
2018-02-06T00:40:12.297Z,61.35
2018-02-06T00:40:36.250Z,61.37
2018-02-06T00:41:00.046Z,61.37
2018-02-06T00:41:23.843Z,61.38
2018-02-06T00:41:47.308Z,61.38
2018-02-06T00:42:14.469Z,61.38
2018-02-06T00:42:38.290Z,61.41
2018-02-06T00:43:02.065Z,61.37
2018-02-06T00:43:25.891Z,61.38
2018-02-06T00:43:49.648Z,61.36
2018-02-06T00:44:13.416Z,61.35
2018-02-06T00:44:36.865Z,61.35
2018-02-06T00:45:00.685Z,61.33
2018-02-06T00:45:24.136Z,61.33
2018-02-06T00:45:47.883Z,61.33
2018-02-06T00:46:11.662Z,61.32
2018-02-06T00:46:35.409Z,61.31
2018-02-06T00:46:59.206Z,61.31
2018-02-06T00:47:22.996Z,61.30
2018-02-06T00:47:46.473Z,61.28
2018-02-06T00:48:09.547Z,61.29
2018-02-06T00:48:33.302Z,61.30
2018-02-06T00:48:57.539Z,61.31
2018-02-06T00:49:21.016Z,61.28
2018-02-06T00:49:44.777Z,61.26
2018-02-06T00:50:08.846Z,61.26
2018-02-06T00:50:32.638Z,61.24
2018-02-06T00:50:56.730Z,61.22
2018-02-06T00:51:20.501Z,61.22
2018-02-06T00:51:44.565Z,61.22
2018-02-06T00:52:08.325Z,61.23
2018-02-06T00:52:31.869Z,61.24
2018-02-06T00:52:55.617Z,61.25
2018-02-06T00:53:19.393Z,61.24
2018-02-06T00:53:43.207Z,61.25
2018-02-06T00:54:07.282Z,61.25
2018-02-06T00:54:31.052Z,61.25
2018-02-06T00:54:55.086Z,61.26
2018-02-06T00:55:19.116Z,61.27
2018-02-06T00:55:42.871Z,61.29
2018-02-06T00:56:06.323Z,61.31
2018-02-06T00:56:30.078Z,61.31
2018-02-06T00:56:53.874Z,61.30
2018-02-06T00:57:17.360Z,61.29
2018-02-06T00:57:41.194Z,61.30
2018-02-06T00:58:04.971Z,61.29
2018-02-06T00:58:28.705Z,61.30
2018-02-06T00:58:52.461Z,61.32
2018-02-06T00:59:15.906Z,61.34
2018-02-06T00:59:39.658Z,61.39
2018-02-06T01:00:03.443Z,61.43
2018-02-06T01:00:27.976Z,61.46
2018-02-06T01:00:51.725Z,61.49
2018-02-06T01:01:15.468Z,61.52
2018-02-06T01:01:39.253Z,61.55
2018-02-06T01:02:03.282Z,61.56
2018-02-06T01:02:27.038Z,61.56
2018-02-06T01:02:50.558Z,61.57
2018-02-06T01:03:14.303Z,61.60
2018-02-06T01:03:38.114Z,61.64
2018-02-06T01:04:01.878Z,61.70
2018-02-06T01:04:25.981Z,61.74
2018-02-06T01:04:49.780Z,61.78
2018-02-06T01:05:13.806Z,61.82
2018-02-06T01:05:37.281Z,61.86
2018-02-06T01:06:01.036Z,61.91
2018-02-06T01:06:24.883Z,61.95
2018-02-06T01:06:48.657Z,61.98
2018-02-06T01:07:12.402Z,62.01
2018-02-06T01:07:35.860Z,62.04
2018-02-06T01:07:59.681Z,62.08
2018-02-06T01:08:23.409Z,62.12
2018-02-06T01:08:47.163Z,62.15
2018-02-06T01:09:10.614Z,62.18
2018-02-06T01:09:34.377Z,62.22
2018-02-06T01:09:58.186Z,62.23
2018-02-06T01:10:21.996Z,62.24
2018-02-06T01:10:46.060Z,62.26
2018-02-06T01:11:10.063Z,62.30
2018-02-06T01:11:33.918Z,62.29
2018-02-06T01:11:57.964Z,62.27
2018-02-06T01:12:21.743Z,62.29
2018-02-06T01:12:45.218Z,62.29
2018-02-06T01:13:08.981Z,62.29
2018-02-06T01:13:32.771Z,62.29
2018-02-06T01:13:56.573Z,62.30
2018-02-06T01:14:20.625Z,62.31
2018-02-06T01:14:44.080Z,62.30
2018-02-06T01:15:07.828Z,62.29
2018-02-06T01:15:31.589Z,62.28
2018-02-06T01:15:55.331Z,62.26
2018-02-06T01:16:19.350Z,62.26
2018-02-06T01:16:43.406Z,62.26
2018-02-06T01:17:07.146Z,62.24
2018-02-06T01:17:30.618Z,62.22
2018-02-06T01:17:54.436Z,62.24
2018-02-06T01:18:18.247Z,62.25
2018-02-06T01:18:42.023Z,62.26
2018-02-06T01:19:05.712Z,62.25
2018-02-06T01:19:29.485Z,62.25
2018-02-06T01:19:53.327Z,62.26
2018-02-06T01:20:17.076Z,62.27
2018-02-06T01:20:40.824Z,62.27
2018-02-06T01:21:04.560Z,62.28
2018-02-06T01:21:28.009Z,62.28
2018-02-06T01:21:51.757Z,62.30
2018-02-06T01:22:15.560Z,62.30
2018-02-06T01:22:39.601Z,62.32
2018-02-06T01:23:03.382Z,62.33
2018-02-06T01:23:26.852Z,62.35
2018-02-06T01:23:50.622Z,62.35
2018-02-06T01:24:14.363Z,62.35
2018-02-06T01:24:38.205Z,62.36
2018-02-06T01:25:02.269Z,62.37
2018-02-06T01:25:26.065Z,62.40
2018-02-06T01:25:49.532Z,62.43
2018-02-06T01:26:13.289Z,62.45
2018-02-06T01:26:37.102Z,62.47
2018-02-06T01:27:01.058Z,62.47
2018-02-06T01:27:24.912Z,62.49
2018-02-06T01:27:49.077Z,62.50
2018-02-06T01:28:12.857Z,62.53
2018-02-06T01:28:36.691Z,62.55
2018-02-06T01:29:00.758Z,62.57
2018-02-06T01:29:24.503Z,62.59
2018-02-06T01:29:47.952Z,62.59
2018-02-06T01:30:11.822Z,62.59
2018-02-06T01:30:35.560Z,62.58
2018-02-06T01:30:59.304Z,62.57
2018-02-06T01:31:22.755Z,62.55
2018-02-06T01:31:46.516Z,62.55
2018-02-06T01:32:10.252Z,62.55
2018-02-06T01:32:34.278Z,62.54
2018-02-06T01:32:58.062Z,62.54
2018-02-06T01:33:21.545Z,62.54
2018-02-06T01:33:45.337Z,62.54
2018-02-06T01:34:09.065Z,62.55
2018-02-06T01:34:32.820Z,62.56
2018-02-06T01:34:56.288Z,62.56
2018-02-06T01:35:20.012Z,62.55
2018-02-06T01:35:43.743Z,62.54
2018-02-06T01:36:07.768Z,62.54
2018-02-06T01:36:31.545Z,62.54
2018-02-06T01:36:54.988Z,62.53
2018-02-06T01:37:18.728Z,62.53
2018-02-06T01:37:42.506Z,62.52
2018-02-06T01:38:06.345Z,62.51
2018-02-06T01:38:29.902Z,62.51
2018-02-06T01:38:53.762Z,62.53
2018-02-06T01:39:17.521Z,62.53
2018-02-06T01:39:41.266Z,62.55
2018-02-06T01:40:05.335Z,62.54
2018-02-06T01:40:29.126Z,62.55
2018-02-06T01:40:53.149Z,62.56
2018-02-06T01:41:17.001Z,62.57
2018-02-06T01:41:41.060Z,62.56
2018-02-06T01:42:04.812Z,62.56
2018-02-06T01:42:28.253Z,62.56
2018-02-06T01:42:52.018Z,62.57
2018-02-06T01:43:15.813Z,62.56
2018-02-06T01:43:39.856Z,62.57
2018-02-06T01:44:03.686Z,62.58
2018-02-06T01:44:27.696Z,62.60
2018-02-06T01:44:51.443Z,62.61
2018-02-06T01:45:14.891Z,62.64
2018-02-06T01:45:38.625Z,62.66
2018-02-06T01:46:02.506Z,62.66
2018-02-06T01:46:26.266Z,62.68
2018-02-06T01:46:49.794Z,62.70
2018-02-06T01:47:13.537Z,62.73
2018-02-06T01:47:37.298Z,62.75
2018-02-06T01:48:01.053Z,62.77
2018-02-06T01:48:25.089Z,62.78
2018-02-06T01:48:49.113Z,62.77
2018-02-06T01:49:12.877Z,62.78
2018-02-06T01:49:36.403Z,62.81
2018-02-06T01:50:05.656Z,62.81
2018-02-06T01:50:29.301Z,62.84
2018-02-06T01:50:52.965Z,62.86
2018-02-06T01:51:16.804Z,62.87
2018-02-06T01:51:40.564Z,62.87
2018-02-06T01:52:04.234Z,62.89
2018-02-06T01:52:28.037Z,62.89
2018-02-06T01:52:51.769Z,62.90
2018-02-06T01:53:15.539Z,62.90
2018-02-06T01:53:39.277Z,62.90
2018-02-06T01:54:02.741Z,62.89
2018-02-06T01:54:26.516Z,62.89
2018-02-06T01:54:50.252Z,62.87
2018-02-06T01:55:14.272Z,62.86
2018-02-06T01:55:38.050Z,62.86
2018-02-06T01:56:01.528Z,62.87
2018-02-06T01:56:25.298Z,62.88
2018-02-06T01:56:49.042Z,62.90
2018-02-06T01:57:12.490Z,62.91
2018-02-06T01:57:36.282Z,62.91
2018-02-06T01:58:00.069Z,62.92
2018-02-06T01:58:23.821Z,62.91
2018-02-06T01:58:47.880Z,62.91
2018-02-06T01:59:11.661Z,62.92
2018-02-06T01:59:35.712Z,62.95
2018-02-06T01:59:59.532Z,62.94
2018-02-06T02:00:23.637Z,62.95
2018-02-06T02:00:47.403Z,62.94
2018-02-06T02:01:10.896Z,62.94
2018-02-06T02:01:34.641Z,62.95
2018-02-06T02:01:58.434Z,62.95
2018-02-06T02:02:22.202Z,62.97
2018-02-06T02:02:45.661Z,62.99
2018-02-06T02:03:09.397Z,63.02
2018-02-06T02:03:33.146Z,63.03
2018-02-06T02:03:57.176Z,63.03
2018-02-06T02:04:21.160Z,63.04
2018-02-06T02:04:44.960Z,63.06
2018-02-06T02:05:09.015Z,63.07
2018-02-06T02:05:32.466Z,63.06
2018-02-06T02:05:56.208Z,63.06
2018-02-06T02:06:20.162Z,63.07
2018-02-06T02:06:43.897Z,63.07
2018-02-06T02:07:07.646Z,63.07
2018-02-06T02:07:31.136Z,63.07
2018-02-06T02:07:54.868Z,63.07
2018-02-06T02:08:18.640Z,63.08
2018-02-06T02:08:42.678Z,63.10
2018-02-06T02:09:06.081Z,63.14
2018-02-06T02:09:30.047Z,63.14
2018-02-06T02:09:53.848Z,63.14
2018-02-06T02:10:17.616Z,63.19
2018-02-06T02:10:41.375Z,63.23
2018-02-06T02:11:04.866Z,63.26
2018-02-06T02:11:28.600Z,63.27
2018-02-06T02:11:52.335Z,63.25
2018-02-06T02:12:16.093Z,63.24
2018-02-06T02:12:40.173Z,63.25
2018-02-06T02:13:03.913Z,63.26
2018-02-06T02:13:27.152Z,63.26
2018-02-06T02:13:50.893Z,63.28
2018-02-06T02:14:14.913Z,63.30
2018-02-06T02:14:38.931Z,63.32
2018-02-06T02:15:02.747Z,63.33
2018-02-06T02:15:26.778Z,63.34
2018-02-06T02:15:50.825Z,63.34
2018-02-06T02:16:14.600Z,63.32
2018-02-06T02:16:38.619Z,63.32
2018-02-06T02:17:02.659Z,63.32
2018-02-06T02:17:26.416Z,63.32
2018-02-06T02:17:49.876Z,63.32
2018-02-06T02:18:13.620Z,63.33
2018-02-06T02:18:37.364Z,63.33
2018-02-06T02:19:01.422Z,63.33
2018-02-06T02:19:24.919Z,63.31
2018-02-06T02:19:48.737Z,63.30
2018-02-06T02:20:12.600Z,63.31
2018-02-06T02:20:36.364Z,63.32
2018-02-06T02:21:00.109Z,63.31
2018-02-06T02:21:23.869Z,63.33
2018-02-06T02:21:47.321Z,63.33
2018-02-06T02:22:11.110Z,63.31
2018-02-06T02:22:34.926Z,63.29
2018-02-06T02:22:58.690Z,63.29
2018-02-06T02:23:22.180Z,63.29
2018-02-06T02:23:45.939Z,63.31
2018-02-06T02:24:09.726Z,63.31
2018-02-06T02:24:33.473Z,63.32
2018-02-06T02:24:56.923Z,63.33
2018-02-06T02:25:20.697Z,63.35
2018-02-06T02:25:44.133Z,63.37
2018-02-06T02:26:07.865Z,63.38
2018-02-06T02:26:31.670Z,63.39
2018-02-06T02:26:55.424Z,63.41
2018-02-06T02:27:19.156Z,63.40
2018-02-06T02:27:43.210Z,63.40
2018-02-06T02:28:07.235Z,63.40
2018-02-06T02:28:30.981Z,63.42
2018-02-06T02:28:54.430Z,63.41
2018-02-06T02:29:18.180Z,63.40
2018-02-06T02:29:41.916Z,63.39
2018-02-06T02:30:05.968Z,63.39
2018-02-06T02:30:29.508Z,63.39
2018-02-06T02:30:53.259Z,63.38
2018-02-06T02:31:17.037Z,63.38
2018-02-06T02:31:40.787Z,63.39
2018-02-06T02:32:04.536Z,63.39
2018-02-06T02:32:28.271Z,63.39
2018-02-06T02:32:52.021Z,63.40
2018-02-06T02:33:15.848Z,63.40
2018-02-06T02:33:39.606Z,63.39
2018-02-06T02:34:03.440Z,63.41
2018-02-06T02:34:27.496Z,63.42
2018-02-06T02:34:51.254Z,63.42
2018-02-06T02:35:15.308Z,63.43
2018-02-06T02:35:38.794Z,63.43
2018-02-06T02:36:02.649Z,63.44
2018-02-06T02:36:26.473Z,63.44
2018-02-06T02:36:50.264Z,63.52
2018-02-06T02:37:14.016Z,63.46
2018-02-06T02:37:38.073Z,63.47
2018-02-06T02:38:01.841Z,63.47
2018-02-06T02:38:25.878Z,63.48
2018-02-06T02:38:49.901Z,63.46
2018-02-06T02:39:13.738Z,63.46
2018-02-06T02:39:37.798Z,63.48
2018-02-06T02:40:01.536Z,63.51
2018-02-06T02:40:24.972Z,63.51
2018-02-06T02:40:48.747Z,63.51
2018-02-06T02:41:12.496Z,63.51
2018-02-06T02:41:36.505Z,63.51
2018-02-06T04:38:46.520Z,66.71
2018-02-06T04:39:10.272Z,66.67
2018-02-06T04:39:34.016Z,66.64
2018-02-06T04:39:57.500Z,66.64
2018-02-06T04:40:21.366Z,66.65
2018-02-06T04:40:45.116Z,66.65
2018-02-06T04:41:08.868Z,66.65
2018-02-06T04:41:32.900Z,66.66
2018-02-06T04:41:56.746Z,66.68
2018-02-06T04:42:20.761Z,66.68
2018-02-06T04:42:44.205Z,66.70
2018-02-06T04:43:08.017Z,66.72
2018-02-06T04:43:31.796Z,66.72
2018-02-06T04:43:55.524Z,66.71
2018-02-06T04:44:19.029Z,66.66
2018-02-06T04:44:42.813Z,66.63
2018-02-06T04:45:06.366Z,66.59
2018-02-06T04:45:29.821Z,66.56
2018-02-06T04:45:53.573Z,66.54
2018-02-06T04:46:17.354Z,66.53
2018-02-06T04:46:41.099Z,66.52
2018-02-06T04:47:05.139Z,66.50
2018-02-06T04:47:28.937Z,66.49
2018-02-06T04:47:52.960Z,66.48
2018-02-06T04:48:16.705Z,66.49
2018-02-06T04:48:40.486Z,66.50
2018-02-06T04:49:04.058Z,66.50
2018-02-06T04:49:27.814Z,66.50
2018-02-06T04:49:51.370Z,66.49
2018-02-06T04:50:15.132Z,66.49
2018-02-06T04:50:38.912Z,66.49
2018-02-06T04:51:02.686Z,66.48
2018-02-06T04:51:26.434Z,66.47
2018-02-06T04:51:49.921Z,66.46
2018-02-06T04:52:13.706Z,66.44
2018-02-06T04:52:37.665Z,66.43
2018-02-06T04:53:01.401Z,66.41
2018-02-06T04:53:25.158Z,66.39
2018-02-06T04:53:48.989Z,66.37
2018-02-06T04:54:13.056Z,66.36
2018-02-06T04:54:36.833Z,66.35
2018-02-06T04:54:59.959Z,66.35
2018-02-06T04:55:23.740Z,66.35
2018-02-06T04:55:47.252Z,66.35
2018-02-06T04:56:10.996Z,66.36
2018-02-06T04:56:34.780Z,66.39
2018-02-06T04:56:58.520Z,66.42
2018-02-06T04:57:22.572Z,66.42
2018-02-06T04:57:46.024Z,66.40
2018-02-06T04:58:09.775Z,66.36
2018-02-06T04:58:33.569Z,66.37
2018-02-06T04:58:57.368Z,66.36
2018-02-06T04:59:21.152Z,66.30
2018-02-06T04:59:45.207Z,66.27
2018-02-06T05:00:08.672Z,66.26
2018-02-06T05:00:32.429Z,66.25
2018-02-06T05:00:56.392Z,66.25
2018-02-06T05:01:20.145Z,66.26
2018-02-06T05:01:43.970Z,66.26
2018-02-06T05:02:07.760Z,66.24
2018-02-06T05:02:31.817Z,66.21
2018-02-06T05:02:55.317Z,66.21
2018-02-06T05:03:19.312Z,66.19
2018-02-06T05:03:43.048Z,66.16
2018-02-06T05:04:06.805Z,66.13
2018-02-06T05:04:30.560Z,66.11
2018-02-06T05:04:54.350Z,66.10
2018-02-06T05:05:17.796Z,66.12
2018-02-06T05:05:41.548Z,66.14
2018-02-06T05:06:05.295Z,66.18
2018-02-06T05:48:06.879Z,67.22
2018-02-06T05:48:30.959Z,67.29
2018-02-06T05:48:54.725Z,67.34
2018-02-06T05:49:18.192Z,67.38
2018-02-06T05:49:41.985Z,67.40
2018-02-06T05:50:05.753Z,67.41
2018-02-06T05:50:29.508Z,67.42
2018-02-06T05:50:52.985Z,67.42
2018-02-06T05:51:16.740Z,67.41
2018-02-06T05:51:40.476Z,67.41
2018-02-06T05:52:04.448Z,67.41
2018-02-06T05:52:28.200Z,67.41
2018-02-06T05:52:52.335Z,67.42
2018-02-06T05:53:16.184Z,67.44
2018-02-06T05:53:39.963Z,67.43
2018-02-06T05:54:03.497Z,67.41
2018-02-06T05:54:27.332Z,67.35
2018-02-06T05:54:51.186Z,67.29
2018-02-06T05:55:15.027Z,67.23
2018-02-06T05:55:38.775Z,67.21
2018-02-06T05:56:02.226Z,67.17
2018-02-06T05:56:26.049Z,67.11
2018-02-06T05:56:49.842Z,67.08
2018-02-06T05:57:13.581Z,67.04
2018-02-06T05:57:37.364Z,67.02
2018-02-06T05:58:01.441Z,67.02
2018-02-06T05:58:25.228Z,67.02
2018-02-06T05:58:49.260Z,66.98
2018-02-06T05:59:13.277Z,66.96
2018-02-06T05:59:37.042Z,66.91
2018-02-06T06:00:00.501Z,66.86
2018-02-06T06:00:24.270Z,66.84
2018-02-06T06:00:48.096Z,66.80
2018-02-06T06:01:11.866Z,66.75
2018-02-06T06:01:35.900Z,66.70
2018-02-06T06:01:59.668Z,66.66
2018-02-06T06:02:23.825Z,66.61
2018-02-06T06:02:47.673Z,66.56
2018-02-06T06:03:11.420Z,66.52
2018-02-06T06:03:35.064Z,66.46
2018-02-06T06:03:58.697Z,66.38
2018-02-06T06:04:22.436Z,66.35
2018-02-06T06:04:46.188Z,66.32
2018-02-06T06:05:09.662Z,66.32
2018-02-06T06:05:33.518Z,66.32
2018-02-06T06:05:57.418Z,66.30
2018-02-06T06:06:21.176Z,66.25
2018-02-06T06:06:44.928Z,66.19
2018-02-06T06:07:08.385Z,66.13
2018-02-06T06:07:32.125Z,66.08
2018-02-06T06:07:55.889Z,66.04
2018-02-06T06:08:19.741Z,66.02
2018-02-06T06:08:43.878Z,65.94
2018-02-06T06:09:07.613Z,65.86
2018-02-06T06:09:31.701Z,65.81
2018-02-06T06:09:55.489Z,65.78
2018-02-06T06:10:19.625Z,65.75
2018-02-06T06:10:43.385Z,65.71
2018-02-06T06:11:07.471Z,65.67
2018-02-06T06:11:31.241Z,65.62
2018-02-06T06:11:55.367Z,65.59
2018-02-06T06:12:19.228Z,65.63
2018-02-06T06:12:42.678Z,65.61
2018-02-06T06:13:06.432Z,65.60
2018-02-06T06:13:30.200Z,65.58
2018-02-06T06:13:54.027Z,65.54
2018-02-06T06:14:17.807Z,65.53
2018-02-06T06:14:41.830Z,65.52
2018-02-06T06:15:05.920Z,65.52
2018-02-06T06:15:29.657Z,65.52
2018-02-06T06:15:53.686Z,65.54
2018-02-06T06:16:17.210Z,65.54
2018-02-06T06:16:40.933Z,65.54
2018-02-06T06:17:04.513Z,65.59
2018-02-06T06:17:28.063Z,65.63
2018-02-06T06:17:51.877Z,65.69
2018-02-06T06:18:15.617Z,65.74
2018-02-06T06:18:39.370Z,65.74
2018-02-06T06:19:03.136Z,65.74
2018-02-06T06:19:27.172Z,65.74
2018-02-06T06:19:50.620Z,65.72
2018-02-06T06:20:14.566Z,65.71
2018-02-06T06:20:38.300Z,65.76
2018-02-06T06:21:02.041Z,65.80
2018-02-06T06:21:25.796Z,65.81
2018-02-06T06:21:49.841Z,65.82
2018-02-06T06:22:13.593Z,65.81
2018-02-06T06:22:37.115Z,65.79
2018-02-06T06:23:00.974Z,65.76
2018-02-06T06:23:24.718Z,65.75
2018-02-06T06:23:48.498Z,65.72
2018-02-06T06:24:12.560Z,65.73
2018-02-06T06:24:36.344Z,65.73
2018-02-06T06:25:00.382Z,65.74
2018-02-06T06:25:23.829Z,65.73
2018-02-06T06:25:47.592Z,65.74
2018-02-06T06:26:11.430Z,65.75
2018-02-06T06:26:35.170Z,65.76
2018-02-06T06:26:58.974Z,65.78
2018-02-06T06:27:23.016Z,65.77
2018-02-06T06:27:46.472Z,65.79
2018-02-06T06:28:10.224Z,65.79
2018-02-06T06:28:33.972Z,65.79
2018-02-06T06:28:57.728Z,65.79
2018-02-06T06:29:21.793Z,65.78
2018-02-06T06:29:45.613Z,65.79
2018-02-06T06:30:09.321Z,65.79
2018-02-06T06:30:33.114Z,65.82
2018-02-06T06:30:56.922Z,65.83
2018-02-06T06:31:20.962Z,65.83
2018-02-06T06:31:44.693Z,65.83
2018-02-06T06:32:08.485Z,65.83
2018-02-06T06:32:32.243Z,65.84
2018-02-06T06:32:56.268Z,65.86
2018-02-06T06:33:20.037Z,65.92
2018-02-06T06:33:44.096Z,65.97
2018-02-06T06:34:08.150Z,65.98
2018-02-06T06:34:31.757Z,65.98
2018-02-06T06:34:55.259Z,65.97
2018-02-06T06:35:18.995Z,65.97
2018-02-06T06:35:42.741Z,65.97
2018-02-06T06:36:06.886Z,66.00
2018-02-06T06:36:30.670Z,66.04
2018-02-06T06:36:54.275Z,66.07
2018-02-06T06:37:18.067Z,66.08
2018-02-06T06:37:41.845Z,66.11
2018-02-06T06:38:05.583Z,66.14
2018-02-06T06:38:29.341Z,66.17
2018-02-06T06:38:53.407Z,66.21
2018-02-06T06:39:17.156Z,66.24
2018-02-06T06:39:40.799Z,66.28
2018-02-06T06:40:04.687Z,66.32
2018-02-06T06:40:28.529Z,66.37
2018-02-06T06:40:52.256Z,66.42
2018-02-06T06:41:16.013Z,66.45
2018-02-06T06:41:39.853Z,66.47
2018-02-06T06:42:03.885Z,66.47
2018-02-06T06:42:27.339Z,66.49
2018-02-06T06:42:51.145Z,66.50
2018-02-06T06:43:14.712Z,66.51
2018-02-06T06:43:38.200Z,66.55
2018-02-06T06:44:01.972Z,66.57
2018-02-06T06:44:25.879Z,66.58
2018-02-06T06:44:49.705Z,66.59
2018-02-06T06:45:13.463Z,66.60
2018-02-06T06:45:37.256Z,66.60
2018-02-06T06:46:00.746Z,66.60
2018-02-06T06:46:24.548Z,66.61
2018-02-06T06:46:48.353Z,66.63
2018-02-06T06:47:12.105Z,66.67
2018-02-06T06:47:36.199Z,66.70
2018-02-06T06:47:59.997Z,66.73
2018-02-06T06:48:23.470Z,66.74
2018-02-06T06:48:47.408Z,66.75
2018-02-06T06:49:11.160Z,66.74
2018-02-06T06:49:35.097Z,66.77
2018-02-06T06:49:58.882Z,66.81
2018-02-06T06:50:22.634Z,66.85
2018-02-06T06:50:46.125Z,66.88
2018-02-06T06:51:09.873Z,66.92
2018-02-06T06:51:33.711Z,66.96
2018-02-06T06:51:57.476Z,66.98
2018-02-06T06:52:21.452Z,67.01
2018-02-06T06:52:45.320Z,67.05
2018-02-06T06:53:08.796Z,67.06
2018-02-06T06:53:32.597Z,67.06
2018-02-06T06:53:56.371Z,67.03
2018-02-06T06:54:20.193Z,67.00
2018-02-06T06:54:43.953Z,67.00
2018-02-06T06:55:08.024Z,67.00
2018-02-06T06:55:31.793Z,67.01
2018-02-06T06:55:55.269Z,67.01
2018-02-06T06:56:19.021Z,67.01
2018-02-06T06:56:42.849Z,67.02
2018-02-06T06:57:06.709Z,67.01
2018-02-06T06:57:30.514Z,67.04
2018-02-06T06:57:54.560Z,67.05
2018-02-06T06:58:18.367Z,67.08
2018-02-06T06:58:42.423Z,67.08
2018-02-06T06:59:06.192Z,67.05
2018-02-06T06:59:29.697Z,67.03
2018-02-06T06:59:53.480Z,67.02
2018-02-06T07:00:17.088Z,67.02
2018-02-06T07:00:40.556Z,67.03
2018-02-06T07:01:04.362Z,67.02
2018-02-06T07:01:28.151Z,67.02
2018-02-06T07:01:51.908Z,67.03
2018-02-06T07:02:15.955Z,67.05
2018-02-06T07:02:39.816Z,67.07
2018-02-06T07:03:03.863Z,67.08
2018-02-06T07:03:27.622Z,67.07
2018-02-06T07:03:51.073Z,67.04
2018-02-06T07:04:14.847Z,67.02
2018-02-06T07:04:38.580Z,67.03
2018-02-06T07:05:02.319Z,67.02
2018-02-06T07:05:26.397Z,67.00
2018-02-06T07:05:50.425Z,66.98
2018-02-06T07:06:14.172Z,66.98
2018-02-06T07:06:37.679Z,67.01
2018-02-06T07:07:01.428Z,67.04
2018-02-06T07:07:25.181Z,67.07
2018-02-06T07:07:48.631Z,67.14
2018-02-06T07:08:12.416Z,67.18
2018-02-06T07:08:36.198Z,67.20
2018-02-06T07:09:00.029Z,67.17
2018-02-06T07:09:23.780Z,67.13
2018-02-06T07:09:47.811Z,67.09
2018-02-06T07:10:11.836Z,67.07
2018-02-06T07:10:35.604Z,67.06
2018-02-06T07:10:59.624Z,67.06
2018-02-06T07:11:23.639Z,67.09
2018-02-06T07:11:47.479Z,67.11
2018-02-06T07:12:11.494Z,67.13
2018-02-06T07:12:34.963Z,67.14
2018-02-06T07:12:58.556Z,67.17
2018-02-06T07:13:22.379Z,67.18
2018-02-06T07:13:46.139Z,67.18
2018-02-06T07:14:10.180Z,67.19
2018-02-06T07:14:33.664Z,67.20
2018-02-06T07:14:57.432Z,67.23
2018-02-06T07:15:21.224Z,67.25
2018-02-06T07:15:45.117Z,67.28
2018-02-06T07:16:08.676Z,67.34
2018-02-06T07:16:32.464Z,67.39
2018-02-06T07:16:55.966Z,67.44
2018-02-06T07:17:19.779Z,67.48
2018-02-06T07:17:43.537Z,67.52
2018-02-06T07:18:06.992Z,67.55
2018-02-06T07:18:30.748Z,67.54
2018-02-06T07:18:54.521Z,67.52
2018-02-06T07:19:18.002Z,67.48
2018-02-06T07:19:41.735Z,67.47
2018-02-06T07:20:04.820Z,67.44
2018-02-06T07:20:28.572Z,67.43
2018-02-06T07:20:52.165Z,67.42
2018-02-06T07:21:16.189Z,67.36
2018-02-06T07:21:39.642Z,67.39
2018-02-06T07:22:03.592Z,67.39
2018-02-06T07:22:27.344Z,67.35
2018-02-06T07:22:51.092Z,67.30
2018-02-06T07:23:14.826Z,67.27
2018-02-06T07:23:38.884Z,67.27
2018-02-06T07:24:02.656Z,67.26
2018-02-06T07:24:26.684Z,67.25
2018-02-06T07:24:50.714Z,67.21
2018-02-06T07:25:14.483Z,67.18
2018-02-06T07:25:38.543Z,67.21
2018-02-06T07:26:02.384Z,67.22
2018-02-06T07:26:26.489Z,67.20
2018-02-06T07:26:50.263Z,67.22
2018-02-06T07:27:14.304Z,67.24
2018-02-06T07:27:38.098Z,67.27
2018-02-06T07:28:01.579Z,67.30
2018-02-06T07:28:25.317Z,67.30
2018-02-06T07:28:49.107Z,67.30
2018-02-06T07:29:12.927Z,67.29
2018-02-06T07:29:37.019Z,67.27
2018-02-06T07:30:00.771Z,67.24
2018-02-06T07:30:24.896Z,67.20
2018-02-06T07:30:48.652Z,67.18
2018-02-06T07:31:12.717Z,67.15
2018-02-06T07:31:36.477Z,67.13
2018-02-06T07:32:00.534Z,67.11
2018-02-06T07:32:24.656Z,67.07
2018-02-06T07:32:48.404Z,67.06
2018-02-06T07:33:12.466Z,67.06
2018-02-06T07:33:36.237Z,67.05
2018-02-06T07:34:00.337Z,67.06
2018-02-06T07:34:24.284Z,67.06
2018-02-06T07:34:48.243Z,67.05
2018-02-06T07:35:12.092Z,67.02
2018-02-06T07:35:36.140Z,66.99
2018-02-06T07:35:59.902Z,66.95
2018-02-06T07:36:24.020Z,66.89
2018-02-06T07:36:47.768Z,66.85
2018-02-06T07:37:11.909Z,66.82
2018-02-06T07:37:35.639Z,66.79
2018-02-06T07:37:59.721Z,66.78
2018-02-06T07:38:23.488Z,66.80
2018-02-06T07:38:47.009Z,66.80
2018-02-06T07:39:10.784Z,66.80
2018-02-06T07:39:34.542Z,66.76
2018-02-06T07:39:58.301Z,66.71
2018-02-06T07:40:22.349Z,66.65
2018-02-06T07:40:46.107Z,66.60
2018-02-06T07:41:10.188Z,66.54
2018-02-06T07:41:33.956Z,66.51
2018-02-06T07:41:57.408Z,66.50
2018-02-06T07:42:21.145Z,66.48
2018-02-06T07:42:44.933Z,66.47
2018-02-06T07:43:08.744Z,66.46
2018-02-06T07:43:32.300Z,66.43
2018-02-06T07:43:55.871Z,66.40
2018-02-06T07:44:19.644Z,66.37
2018-02-06T07:44:43.686Z,66.33
2018-02-06T07:45:07.623Z,66.30